createdAt,value
2022-09-20T00:01:49.267Z,101585.25
2022-09-20T00:04:18.313Z,101575.66
2022-09-20T00:06:47.629Z,101586.41
2022-09-20T00:09:18.062Z,101584.16
2022-09-20T00:11:47.288Z,101588.81
2022-09-20T00:14:16.306Z,101588.91
2022-09-20T00:16:45.325Z,101590.47
2022-09-20T00:19:20.094Z,101586.94
2022-09-20T00:21:49.608Z,101595.53
2022-09-20T00:24:20.166Z,101591.44
2022-09-20T00:26:49.248Z,101596.34
2022-09-20T00:29:18.305Z,101600.84
2022-09-20T00:31:47.449Z,101604.03
2022-09-20T00:34:34.227Z,101601.69
2022-09-20T00:37:03.308Z,101605.59
2022-09-20T00:39:33.645Z,101603.66
2022-09-20T00:42:02.615Z,101607.19
2022-09-20T00:44:56.602Z,101611.59
2022-09-20T00:47:32.840Z,101606.53
2022-09-20T00:50:09.072Z,101603.25
2022-09-20T00:52:38.791Z,101600.91
2022-09-20T00:55:11.374Z,101606.78
2022-09-20T00:57:40.828Z,101605.22
2022-09-20T01:00:12.065Z,101603.81
2022-09-20T01:02:44.642Z,101613.84
2022-09-20T01:05:15.732Z,101614.25
2022-09-20T01:07:47.312Z,101616.81
2022-09-20T01:10:18.040Z,101620.59
2022-09-20T01:12:48.676Z,101613.88
2022-09-20T01:15:18.168Z,101618.94
2022-09-20T01:17:52.021Z,101621.59
2022-09-20T01:20:24.502Z,101623.72
2022-09-20T01:23:23.666Z,101623.63
2022-09-20T01:26:12.067Z,101611.78
2022-09-20T01:28:45.345Z,101620.91
2022-09-20T01:31:19.578Z,101612.97
2022-09-20T01:33:53.083Z,101619.69
2022-09-20T01:36:27.304Z,101625.50
2022-09-20T01:39:06.315Z,101621.19
2022-09-20T01:41:40.774Z,101622.81
2022-09-20T01:44:22.235Z,101626.09
2022-09-20T01:46:58.184Z,101623.47
2022-09-20T01:49:36.241Z,101629.88
2022-09-20T01:52:37.968Z,101638.34
2022-09-20T01:55:46.883Z,101633.56
2022-09-20T01:59:19.427Z,101638.31
2022-09-20T02:02:31.773Z,101630.75
2022-09-20T02:05:29.627Z,101632.44
2022-09-20T02:08:11.967Z,101630.19
2022-09-20T02:10:58.796Z,101636.94
2022-09-20T02:13:33.207Z,101634.31
2022-09-20T02:16:32.178Z,101637.75
2022-09-20T02:19:28.615Z,101636.22
2022-09-20T02:22:20.393Z,101641.56
2022-09-20T02:24:59.334Z,101643.69
2022-09-20T02:27:35.636Z,101641.06
2022-09-20T02:30:23.994Z,101639.44
2022-09-20T02:33:14.155Z,101641.22
2022-09-20T02:35:57.315Z,101648.31
2022-09-20T02:38:45.828Z,101648.47
2022-09-20T02:41:47.272Z,101642.75
2022-09-20T02:44:26.047Z,101653.84
2022-09-20T02:47:03.131Z,101652.44
2022-09-20T02:49:43.689Z,101658.81
2022-09-20T02:52:21.885Z,101660.69
2022-09-20T02:54:59.739Z,101657.13
2022-09-20T02:57:39.223Z,101668.75
2022-09-20T03:00:12.612Z,101679.00
2022-09-20T03:02:52.024Z,101672.03
2022-09-20T03:05:27.470Z,101666.31
2022-09-20T03:08:12.277Z,101675.53
2022-09-20T03:10:50.308Z,101682.53
2022-09-20T03:13:31.642Z,101679.06
2022-09-20T03:16:11.949Z,101680.34
2022-09-20T03:18:52.105Z,101680.84
2022-09-20T03:21:35.271Z,101683.59
2022-09-20T03:24:17.351Z,101685.28
2022-09-20T03:26:57.204Z,101701.75
2022-09-20T03:29:39.300Z,101693.59
2022-09-20T03:32:24.091Z,101685.03
2022-09-20T03:35:08.252Z,101695.09
2022-09-20T03:37:59.440Z,101693.16
2022-09-20T03:40:58.790Z,101701.69
2022-09-20T03:43:43.763Z,101706.13
2022-09-20T03:46:19.749Z,101703.94
2022-09-20T03:49:20.881Z,101703.09
2022-09-20T03:52:03.934Z,101705.34
2022-09-20T03:54:54.028Z,101708.28
2022-09-20T03:57:55.883Z,101711.72
2022-09-20T04:00:34.347Z,101719.16
2022-09-20T04:03:30.129Z,101716.00
2022-09-20T04:06:14.490Z,101716.31
2022-09-20T04:09:16.354Z,101723.53
2022-09-20T04:11:53.835Z,101722.97
2022-09-20T04:14:34.160Z,101720.84
2022-09-20T04:17:16.542Z,101712.97
2022-09-20T04:19:50.923Z,101724.47
2022-09-20T04:22:22.891Z,101722.09
2022-09-20T04:24:57.297Z,101733.53
2022-09-20T04:27:31.650Z,101718.38
2022-09-20T04:30:06.294Z,101727.22
2022-09-20T04:32:42.063Z,101719.69
2022-09-20T04:35:42.224Z,101716.63
2022-09-20T04:38:15.490Z,101728.06
2022-09-20T04:41:09.125Z,101721.47
2022-09-20T04:44:27.720Z,101721.69
2022-09-20T04:47:39.757Z,101728.91
2022-09-20T04:50:38.766Z,101729.91
2022-09-20T04:53:38.618Z,101736.41
2022-09-20T04:56:20.733Z,101737.94
2022-09-20T04:59:04.565Z,101743.75
2022-09-20T05:02:09.570Z,101740.66
2022-09-20T05:05:17.236Z,101745.66
2022-09-20T05:08:14.226Z,101755.16
2022-09-20T05:11:11.036Z,101756.22
2022-09-20T05:14:13.330Z,101750.25
2022-09-20T05:17:06.547Z,101751.53
2022-09-20T05:19:55.368Z,101760.88
2022-09-20T05:22:55.145Z,101762.88
2022-09-20T05:25:47.561Z,101773.22
2022-09-20T05:28:27.820Z,101779.53
2022-09-20T05:31:05.182Z,101775.34
2022-09-20T05:33:40.843Z,101786.00
2022-09-20T05:36:18.897Z,101783.41
2022-09-20T05:38:51.795Z,101782.09
2022-09-20T05:41:37.797Z,101789.13
2022-09-20T05:44:21.212Z,101785.38
2022-09-20T05:46:58.497Z,101782.66
2022-09-20T05:49:45.064Z,101790.28
2022-09-20T05:52:43.086Z,101795.41
2022-09-20T05:55:38.602Z,101802.28
2022-09-20T05:58:34.412Z,101803.97
2022-09-20T06:01:10.940Z,101805.31
2022-09-20T06:03:46.525Z,101805.94
2022-09-20T06:06:23.127Z,101800.09
2022-09-20T06:09:13.395Z,101805.22
2022-09-20T06:12:09.833Z,101811.72
2022-09-20T06:14:52.017Z,101814.47
2022-09-20T06:17:28.603Z,101809.94
2022-09-20T06:20:14.599Z,101804.22
2022-09-20T06:22:47.296Z,101812.41
2022-09-20T06:25:21.643Z,101814.34
2022-09-20T06:27:55.374Z,101812.66
2022-09-20T06:30:30.233Z,101819.41
2022-09-20T06:33:01.143Z,101812.16
2022-09-20T06:35:36.950Z,101819.50
2022-09-20T06:38:42.996Z,101823.09
2022-09-20T06:41:28.313Z,101826.25
2022-09-20T06:43:58.591Z,101828.84
2022-09-20T06:46:31.292Z,101825.22
2022-09-20T06:49:00.996Z,101827.47
2022-09-20T06:51:36.582Z,101827.84
2022-09-20T06:54:06.748Z,101828.59
2022-09-20T06:56:38.452Z,101832.34
2022-09-20T06:59:10.341Z,101825.81
2022-09-20T07:01:41.494Z,101832.75
2022-09-20T07:04:10.657Z,101827.59
2022-09-20T07:06:40.578Z,101830.38
2022-09-20T07:09:11.889Z,101822.63
2022-09-20T07:11:41.019Z,101835.44
2022-09-20T07:14:10.688Z,101834.50
2022-09-20T07:16:42.044Z,101834.47
2022-09-20T07:19:11.043Z,101841.94
2022-09-20T07:21:40.434Z,101846.22
2022-09-20T07:24:09.498Z,101853.72
2022-09-20T07:26:39.197Z,101845.50
2022-09-20T07:29:08.390Z,101854.81
2022-09-20T07:31:37.564Z,101855.97
2022-09-20T07:34:07.901Z,101860.84
2022-09-20T07:36:37.138Z,101861.53
2022-09-20T07:39:06.268Z,101869.63
2022-09-20T07:41:35.312Z,101870.28
2022-09-20T07:44:18.257Z,101867.06
2022-09-20T07:46:48.649Z,101866.31
2022-09-20T07:49:19.525Z,101872.22
2022-09-20T07:51:48.566Z,101870.16
2022-09-20T07:54:18.309Z,101871.88
2022-09-20T07:56:47.934Z,101876.84
2022-09-20T07:59:17.360Z,101880.09
2022-09-20T08:01:46.852Z,101883.91
2022-09-20T08:04:15.978Z,101877.81
2022-09-20T08:06:47.338Z,101882.13
2022-09-20T08:09:16.391Z,101882.13
2022-09-20T08:11:46.311Z,101889.78
2022-09-20T08:14:16.662Z,101887.25
2022-09-20T08:16:48.250Z,101895.31
2022-09-20T08:19:20.785Z,101887.53
2022-09-20T08:21:53.326Z,101889.16
2022-09-20T08:24:22.912Z,101884.22
2022-09-20T08:26:52.045Z,101891.63
2022-09-20T08:29:21.155Z,101889.09
2022-09-20T08:31:50.238Z,101897.31
2022-09-20T08:34:19.729Z,101899.63
2022-09-20T08:36:51.993Z,101902.06
2022-09-20T08:42:19.966Z,101895.69
2022-09-20T08:45:00.485Z,101896.09
2022-09-20T08:47:32.615Z,101897.53
2022-09-20T08:50:17.256Z,101903.25
2022-09-20T08:52:50.372Z,101895.94
2022-09-20T08:55:21.917Z,101898.34
2022-09-20T08:57:53.404Z,101906.75
2022-09-20T09:00:24.258Z,101898.50
2022-09-20T09:02:57.012Z,101902.72
2022-09-20T09:05:35.167Z,101908.06
2022-09-20T09:08:16.062Z,101905.91
2022-09-20T09:10:51.256Z,101901.84
2022-09-20T09:13:38.304Z,101900.38
2022-09-20T09:16:14.770Z,101902.16
2022-09-20T09:18:46.056Z,101903.81
2022-09-20T09:21:20.088Z,101901.50
2022-09-20T09:24:01.045Z,101902.19
2022-09-20T09:26:36.652Z,101906.44
2022-09-20T09:29:18.541Z,101909.19
2022-09-20T09:31:49.386Z,101911.06
2022-09-20T09:34:26.989Z,101910.88
2022-09-20T09:36:56.676Z,101913.81
2022-09-20T09:39:28.585Z,101913.25
2022-09-20T09:42:00.794Z,101913.66
2022-09-20T09:44:32.720Z,101912.47
2022-09-20T09:47:02.248Z,101922.69
2022-09-20T09:49:35.862Z,101918.00
2022-09-20T09:52:14.660Z,101915.03
2022-09-20T09:54:49.044Z,101919.72
2022-09-20T09:57:37.127Z,101921.09
2022-09-20T10:00:19.264Z,101922.22
2022-09-20T10:03:14.473Z,101916.91
2022-09-20T10:05:56.625Z,101920.25
2022-09-20T10:08:35.275Z,101916.06
2022-09-20T10:11:22.878Z,101908.88
2022-09-20T10:14:06.438Z,101913.47
2022-09-20T10:16:53.078Z,101924.22
2022-09-20T10:19:33.344Z,101919.78
2022-09-20T10:22:13.302Z,101916.78
2022-09-20T10:24:51.564Z,101931.03
2022-09-20T10:27:37.996Z,101933.41
2022-09-20T10:30:13.168Z,101922.06
2022-09-20T10:33:00.411Z,101918.56
2022-09-20T10:35:45.303Z,101912.66
2022-09-20T10:38:19.669Z,101916.13
2022-09-20T10:41:21.933Z,101909.16
2022-09-20T10:44:09.609Z,101907.22
2022-09-20T10:46:51.747Z,101919.47
2022-09-20T10:49:36.284Z,101917.00
2022-09-20T10:52:31.652Z,101927.44
2022-09-20T10:55:13.983Z,101916.84
2022-09-20T10:58:21.471Z,101919.47
2022-09-20T11:01:01.499Z,101907.44
2022-09-20T11:03:56.699Z,101913.22
2022-09-20T11:06:38.507Z,101924.31
2022-09-20T11:09:14.144Z,101923.38
2022-09-20T11:11:47.598Z,101928.84
2022-09-20T11:14:21.216Z,101933.16
2022-09-20T11:16:55.273Z,101920.00
2022-09-20T11:19:33.910Z,101915.72
2022-09-20T11:22:10.925Z,101914.97
2022-09-20T11:24:46.325Z,101914.34
2022-09-20T11:27:20.094Z,101913.44
2022-09-20T11:29:54.522Z,101922.81
2022-09-20T11:32:32.594Z,101935.06
2022-09-20T11:35:07.889Z,101923.78
2022-09-20T11:37:42.681Z,101918.47
2022-09-20T11:40:22.432Z,101920.00
2022-09-20T11:42:53.210Z,101918.44
2022-09-20T11:45:28.159Z,101914.94
2022-09-20T11:48:03.445Z,101917.63
2022-09-20T11:51:03.193Z,101923.81
2022-09-20T11:53:48.655Z,101923.94
2022-09-20T11:56:21.148Z,101924.22
2022-09-20T11:58:52.556Z,101919.97
2022-09-20T12:01:28.946Z,101926.47
2022-09-20T12:04:31.359Z,101928.06
2022-09-20T12:07:05.862Z,101932.53
2022-09-20T12:09:41.625Z,101927.72
2022-09-20T12:12:28.208Z,101933.56
2022-09-20T12:14:59.518Z,101934.13
2022-09-20T12:18:09.399Z,101924.66
2022-09-20T12:21:03.036Z,101926.53
2022-09-20T12:24:08.683Z,101940.25
2022-09-20T12:26:57.248Z,101932.03
2022-09-20T12:30:15.088Z,101936.03
2022-09-20T12:33:05.056Z,101939.94
2022-09-20T12:36:02.707Z,101930.78
2022-09-20T12:38:37.977Z,101929.22
2022-09-20T12:41:10.661Z,101925.41
2022-09-20T12:43:50.985Z,101925.28
2022-09-20T12:46:31.038Z,101919.91
2022-09-20T12:49:35.976Z,101929.00
2022-09-20T12:52:22.946Z,101926.94
2022-09-20T12:55:00.957Z,101927.41
2022-09-20T12:57:35.599Z,101924.91
2022-09-20T13:00:09.746Z,101924.88
2022-09-20T13:02:58.656Z,101932.53
2022-09-20T13:05:38.130Z,101925.81
2022-09-20T13:08:16.358Z,101928.47
2022-09-20T13:10:51.021Z,101932.09
2022-09-20T13:13:36.155Z,101932.25
2022-09-20T13:16:07.532Z,101929.81
2022-09-20T13:18:37.738Z,101931.56
2022-09-20T13:21:09.508Z,101930.56
2022-09-20T13:23:49.964Z,101926.47
2022-09-20T13:26:30.394Z,101935.03
2022-09-20T13:29:00.137Z,101937.47
2022-09-20T13:31:33.848Z,101936.81
2022-09-20T13:34:23.826Z,101931.13
2022-09-20T13:36:56.604Z,101931.09
2022-09-20T13:39:35.076Z,101935.94
2022-09-20T13:42:11.552Z,101941.63
2022-09-20T13:44:41.012Z,101949.19
2022-09-20T13:47:30.409Z,101958.44
2022-09-20T13:50:03.609Z,101954.38
2022-09-20T13:52:33.602Z,101959.31
2022-09-20T13:55:18.031Z,101949.53
2022-09-20T13:57:48.582Z,101950.63
2022-09-20T14:00:18.566Z,101960.16
2022-09-20T14:02:50.092Z,101955.91
2022-09-20T14:05:21.545Z,101946.84
2022-09-20T14:07:51.262Z,101948.63
2022-09-20T14:10:37.203Z,101944.78
2022-09-20T14:13:12.363Z,101948.00
2022-09-20T14:15:46.445Z,101952.59
2022-09-20T14:18:17.967Z,101951.63
2022-09-20T14:20:47.998Z,101950.59
2022-09-20T14:23:27.972Z,101951.53
2022-09-20T14:26:22.159Z,101942.13
2022-09-20T14:28:52.544Z,101941.06
2022-09-20T14:31:24.514Z,101942.47
2022-09-20T14:33:56.545Z,101942.31
2022-09-20T14:36:28.672Z,101945.56
2022-09-20T14:39:00.240Z,101946.13
2022-09-20T14:41:34.428Z,101943.44
2022-09-20T14:44:07.978Z,101940.06
2022-09-20T14:46:38.775Z,101937.88
2022-09-20T14:49:22.050Z,101942.13
2022-09-20T14:51:51.688Z,101941.06
2022-09-20T14:54:28.062Z,101945.69
2022-09-20T14:56:58.560Z,101946.69
2022-09-20T14:59:36.397Z,101947.22
2022-09-20T15:02:14.037Z,101947.59
2022-09-20T15:04:54.148Z,101947.06
2022-09-20T15:07:23.577Z,101955.59
2022-09-20T15:09:52.612Z,101962.06
2022-09-20T15:12:22.468Z,101961.97
2022-09-20T15:14:52.846Z,101966.09
2022-09-20T15:17:23.495Z,101967.78
2022-09-20T15:19:52.465Z,101961.81
2022-09-20T15:22:21.465Z,101961.88
2022-09-20T15:24:50.483Z,101963.63
2022-09-20T15:27:19.498Z,101966.41
2022-09-20T15:29:48.440Z,101956.38
2022-09-20T15:32:18.824Z,101959.59
2022-09-20T15:34:47.917Z,101961.03
2022-09-20T15:37:17.035Z,101956.81
2022-09-20T15:39:46.029Z,101967.03
2022-09-20T15:42:15.062Z,101972.88
2022-09-20T15:44:44.113Z,101966.72
2022-09-20T15:47:16.019Z,101975.59
2022-09-20T15:49:46.681Z,101977.75
2022-09-20T15:52:15.697Z,101973.03
2022-09-20T15:54:44.759Z,101972.84
2022-09-20T15:57:13.981Z,101982.03
2022-09-20T15:59:43.018Z,101992.84
2022-09-20T16:02:12.652Z,101981.66
2022-09-20T16:04:41.765Z,101983.63
2022-09-20T16:07:12.098Z,101991.22
2022-09-20T16:09:41.370Z,101989.88
2022-09-20T16:12:10.697Z,102000.16
2022-09-20T16:14:39.668Z,101999.31
2022-09-20T16:17:08.626Z,102000.63
2022-09-20T16:19:38.338Z,101996.25
2022-09-20T16:22:07.322Z,102002.31
2022-09-20T16:24:38.194Z,102006.81
2022-09-20T16:27:09.687Z,102010.31
2022-09-20T16:29:38.865Z,102014.91
2022-09-20T16:32:07.956Z,102019.81
2022-09-20T16:34:38.174Z,102019.53
2022-09-20T16:37:11.754Z,102020.63
2022-09-20T16:39:42.446Z,102015.72
2022-09-20T16:42:15.283Z,102014.66
2022-09-20T16:44:50.456Z,102023.88
2022-09-20T16:47:22.241Z,102020.03
2022-09-20T16:49:53.294Z,102029.50
2022-09-20T16:52:31.866Z,102025.00
2022-09-20T16:55:11.263Z,102032.66
2022-09-20T16:57:47.210Z,102036.34
2022-09-20T17:00:20.804Z,102035.75
2022-09-20T17:02:51.216Z,102040.09
2022-09-20T17:05:20.653Z,102047.13
2022-09-20T17:07:50.538Z,102041.72
2022-09-20T17:10:25.056Z,102049.81
2022-09-20T17:12:57.654Z,102059.59
2022-09-20T17:15:26.730Z,102059.19
2022-09-20T17:17:57.947Z,102063.06
2022-09-20T17:20:29.128Z,102067.28
2022-09-20T17:22:59.685Z,102068.63
2022-09-20T17:25:30.235Z,102074.44
2022-09-20T17:27:59.969Z,102073.84
2022-09-20T17:30:29.135Z,102076.56
2022-09-20T17:32:58.396Z,102077.25
2022-09-20T17:35:29.359Z,102082.00
2022-09-20T17:37:58.475Z,102088.81
2022-09-20T17:40:32.164Z,102085.84
2022-09-20T17:43:01.236Z,102087.53
2022-09-20T17:45:30.325Z,102089.03
2022-09-20T17:47:59.471Z,102093.44
2022-09-20T17:50:28.634Z,102095.53
2022-09-20T17:52:57.638Z,102103.50
2022-09-20T17:55:28.293Z,102105.91
2022-09-20T17:57:58.603Z,102105.06
2022-09-20T18:00:30.674Z,102108.28
2022-09-20T18:03:04.162Z,102123.25
2022-09-20T18:05:34.349Z,102124.72
2022-09-20T18:08:04.325Z,102121.94
2022-09-20T18:10:33.548Z,102133.75
2022-09-20T18:13:05.966Z,102124.41
2022-09-20T18:15:35.549Z,102125.34
2022-09-20T18:18:05.339Z,102129.50
2022-09-20T18:20:34.755Z,102131.06
2022-09-20T18:23:05.858Z,102142.91
2022-09-20T18:25:59.208Z,102148.72
2022-09-20T18:28:31.622Z,102153.66
2022-09-20T18:31:05.351Z,102157.31
2022-09-20T18:33:37.067Z,102152.47
2022-09-20T18:36:08.341Z,102153.47
2022-09-20T18:38:37.829Z,102154.44
2022-09-20T18:41:07.272Z,102165.09
2022-09-20T18:43:38.157Z,102167.50
2022-09-20T18:46:09.613Z,102171.34
2022-09-20T18:48:40.353Z,102176.31
2022-09-20T18:51:11.335Z,102180.44
2022-09-20T18:53:45.554Z,102185.59
2022-09-20T18:56:25.525Z,102185.47
2022-09-20T18:58:57.894Z,102183.94
2022-09-20T19:01:55.853Z,102187.88
2022-09-20T19:04:44.297Z,102191.59
2022-09-20T19:07:22.350Z,102190.84
2022-09-20T19:09:58.590Z,102193.84
2022-09-20T19:12:35.079Z,102192.53
2022-09-20T19:15:38.468Z,102196.91
2022-09-20T19:18:26.473Z,102197.00
2022-09-20T19:21:05.807Z,102197.75
2022-09-20T19:23:46.290Z,102201.97
2022-09-20T19:26:24.907Z,102206.53
2022-09-20T19:28:57.047Z,102205.94
2022-09-20T19:31:30.233Z,102215.94
2022-09-20T19:34:02.331Z,102207.25
2022-09-20T19:36:42.973Z,102212.88
2022-09-20T19:39:17.320Z,102214.00
2022-09-20T19:41:58.852Z,102223.09
2022-09-20T19:44:39.480Z,102226.41
2022-09-20T19:47:23.671Z,102229.88
2022-09-20T19:49:56.886Z,102231.00
2022-09-20T19:52:33.751Z,102237.31
2022-09-20T19:55:12.448Z,102231.75
2022-09-20T19:57:47.214Z,102235.81
2022-09-20T20:00:19.389Z,102241.47
2022-09-20T20:02:51.297Z,102242.66
2022-09-20T20:05:25.539Z,102246.78
2022-09-20T20:08:14.726Z,102247.16
2022-09-20T20:10:55.437Z,102247.31
2022-09-20T20:13:51.247Z,102250.69
2022-09-20T20:16:28.137Z,102246.63
2022-09-20T20:19:12.170Z,102249.91
2022-09-20T20:21:53.519Z,102253.47
2022-09-20T20:24:31.590Z,102250.66
2022-09-20T20:27:00.548Z,102248.44
2022-09-20T20:29:29.512Z,102258.97
2022-09-20T20:31:58.559Z,102259.16
2022-09-20T20:34:30.199Z,102262.66
2022-09-20T20:37:01.471Z,102264.50
2022-09-20T20:39:31.592Z,102270.97
2022-09-20T20:42:02.281Z,102272.31
2022-09-20T20:44:33.661Z,102269.97
2022-09-20T20:47:03.993Z,102274.72
2022-09-20T20:49:35.897Z,102281.25
2022-09-20T20:52:05.744Z,102282.00
2022-09-20T20:54:34.947Z,102285.63
2022-09-20T20:57:04.315Z,102285.00
2022-09-20T20:59:33.438Z,102288.78
2022-09-20T21:02:07.147Z,102285.06
2022-09-20T21:04:39.982Z,102293.25
2022-09-20T21:07:08.948Z,102290.28
2022-09-20T21:09:39.646Z,102288.41
2022-09-20T21:12:09.370Z,102290.66
2022-09-20T21:14:38.460Z,102295.94
2022-09-20T21:17:08.375Z,102286.75
2022-09-20T21:19:38.815Z,102290.38
2022-09-20T21:22:07.737Z,102295.13
2022-09-20T21:24:36.793Z,102293.66
2022-09-20T21:27:06.047Z,102291.47
2022-09-20T21:29:35.507Z,102293.44
2022-09-20T21:32:04.612Z,102293.38
2022-09-20T21:34:33.615Z,102292.22
2022-09-20T21:37:04.309Z,102297.66
2022-09-20T21:39:33.367Z,102296.47
2022-09-20T21:42:03.709Z,102296.97
2022-09-20T21:44:32.741Z,102293.06
2022-09-20T21:47:01.659Z,102299.41
2022-09-20T21:49:30.586Z,102297.94
2022-09-20T21:51:59.580Z,102296.94
2022-09-20T21:54:29.965Z,102299.06
2022-09-20T21:56:59.389Z,102302.81
2022-09-20T21:59:28.443Z,102304.00
2022-09-20T22:01:58.672Z,102310.13
2022-09-20T22:04:29.153Z,102313.44
2022-09-20T22:06:58.386Z,102311.28
2022-09-20T22:09:28.763Z,102320.91
2022-09-20T22:11:57.794Z,102312.47
2022-09-20T22:14:26.835Z,102314.44
2022-09-20T22:16:55.988Z,102310.63
2022-09-20T22:19:25.019Z,102310.41
2022-09-20T22:21:54.254Z,102316.09
2022-09-20T22:24:23.600Z,102313.06
2022-09-20T22:26:54.082Z,102314.53
2022-09-20T22:29:23.038Z,102321.06
2022-09-20T22:31:52.170Z,102320.78
2022-09-20T22:34:23.567Z,102316.03
2022-09-20T22:36:53.800Z,102321.66
2022-09-20T22:39:22.761Z,102319.91
2022-09-20T22:41:54.237Z,102318.47
2022-09-20T22:44:23.290Z,102325.69
2022-09-20T22:46:52.344Z,102323.34
2022-09-20T22:49:21.451Z,102323.09
2022-09-20T22:51:50.449Z,102327.91
2022-09-20T22:54:19.377Z,102327.53
2022-09-20T22:56:48.455Z,102326.81
2022-09-20T22:59:18.750Z,102329.75
2022-09-20T23:01:48.970Z,102335.19
2022-09-20T23:04:19.812Z,102341.56
2022-09-20T23:06:54.457Z,102342.66
2022-09-20T23:09:25.172Z,102337.66
2022-09-20T23:11:54.290Z,102335.13
2022-09-20T23:14:24.909Z,102342.16
2022-09-20T23:16:53.982Z,102339.69
2022-09-20T23:19:23.021Z,102339.41
2022-09-20T23:21:52.050Z,102342.69
2022-09-20T23:24:21.101Z,102348.88
2022-09-20T23:26:50.071Z,102346.38
2022-09-20T23:29:19.058Z,102347.06
2022-09-20T23:31:49.933Z,102352.16
2022-09-20T23:34:19.272Z,102364.50
2022-09-20T23:36:48.579Z,102364.00
2022-09-20T23:39:17.709Z,102366.06
2022-09-20T23:41:50.824Z,102366.91
2022-09-20T23:44:20.479Z,102366.56
2022-09-20T23:46:50.829Z,102364.31
2022-09-20T23:49:19.809Z,102362.63
2022-09-20T23:51:48.859Z,102367.91
2022-09-20T23:54:17.884Z,102366.69
2022-09-20T23:56:47.545Z,102366.81
2022-09-20T23:59:16.531Z,102372.81
